sensor_id;sensor_type;location;lat;lon;timestamp;pressure;altitude;pressure_sealevel;temperature;humidity
48555;BME280;34336;48.270;16.716;2023-04-28T00:01:15;109325.25;;;18.16;69.23
48555;BME280;34336;48.270;16.716;2023-04-28T00:03:41;109325.25;;;18.16;69.29
48555;BME280;34336;48.270;16.716;2023-04-28T00:06:08;109325.25;;;18.16;70.14
48555;BME280;34336;48.270;16.716;2023-04-28T00:08:36;109325.25;;;18.16;69.72
48555;BME280;34336;48.270;16.716;2023-04-28T00:11:03;109325.25;;;18.16;70.10
48555;BME280;34336;48.270;16.716;2023-04-28T00:13:29;109325.25;;;18.16;70.98
48555;BME280;34336;48.270;16.716;2023-04-28T00:15:56;109325.25;;;18.16;71.03
48555;BME280;34336;48.270;16.716;2023-04-28T00:18:22;109325.25;;;18.16;71.48
48555;BME280;34336;48.270;16.716;2023-04-28T00:20:49;109325.25;;;18.16;71.85
48555;BME280;34336;48.270;16.716;2023-04-28T00:23:16;109325.25;;;18.16;72.12
48555;BME280;34336;48.270;16.716;2023-04-28T00:25:42;109325.25;;;18.16;72.42
48555;BME280;34336;48.270;16.716;2023-04-28T00:28:09;109325.25;;;18.16;72.70
48555;BME280;34336;48.270;16.716;2023-04-28T00:30:36;109325.25;;;18.16;72.78
48555;BME280;34336;48.270;16.716;2023-04-28T00:33:03;109325.25;;;18.16;72.55
48555;BME280;34336;48.270;16.716;2023-04-28T00:35:29;109325.25;;;18.16;73.03
48555;BME280;34336;48.270;16.716;2023-04-28T00:37:56;109325.25;;;18.16;73.32
48555;BME280;34336;48.270;16.716;2023-04-28T00:40:23;109325.25;;;18.16;73.58
48555;BME280;34336;48.270;16.716;2023-04-28T00:42:49;109325.25;;;18.16;73.73
48555;BME280;34336;48.270;16.716;2023-04-28T00:45:16;109325.25;;;18.16;72.84
48555;BME280;34336;48.270;16.716;2023-04-28T00:47:42;109325.25;;;18.16;72.30
48555;BME280;34336;48.270;16.716;2023-04-28T00:50:10;109325.25;;;18.16;71.97
48555;BME280;34336;48.270;16.716;2023-04-28T00:52:37;109325.25;;;18.16;72.14
48555;BME280;34336;48.270;16.716;2023-04-28T00:55:04;109325.25;;;18.16;71.98
48555;BME280;34336;48.270;16.716;2023-04-28T00:57:32;109325.25;;;18.16;71.80
48555;BME280;34336;48.270;16.716;2023-04-28T00:59:59;109325.25;;;18.16;71.57
48555;BME280;34336;48.270;16.716;2023-04-28T01:02:26;109325.25;;;18.16;70.48
48555;BME280;34336;48.270;16.716;2023-04-28T01:04:56;109325.25;;;18.16;69.73
48555;BME280;34336;48.270;16.716;2023-04-28T01:07:23;109325.25;;;18.16;69.45
48555;BME280;34336;48.270;16.716;2023-04-28T01:09:50;109325.25;;;18.16;69.26
48555;BME280;34336;48.270;16.716;2023-04-28T01:12:22;109325.25;;;18.16;68.89
48555;BME280;34336;48.270;16.716;2023-04-28T01:14:51;109325.25;;;18.16;68.79
48555;BME280;34336;48.270;16.716;2023-04-28T01:17:18;109325.25;;;18.16;68.82
48555;BME280;34336;48.270;16.716;2023-04-28T01:19:45;109325.25;;;18.16;69.23
48555;BME280;34336;48.270;16.716;2023-04-28T01:22:12;109325.25;;;18.16;69.25
48555;BME280;34336;48.270;16.716;2023-04-28T01:24:42;109325.25;;;18.16;68.95
48555;BME280;34336;48.270;16.716;2023-04-28T01:27:11;109325.25;;;18.16;68.50
48555;BME280;34336;48.270;16.716;2023-04-28T01:29:40;109325.25;;;18.16;68.33
48555;BME280;34336;48.270;16.716;2023-04-28T01:32:06;109325.25;;;18.16;68.49
48555;BME280;34336;48.270;16.716;2023-04-28T01:34:33;109325.25;;;18.16;69.06
48555;BME280;34336;48.270;16.716;2023-04-28T01:37:00;109325.25;;;18.16;69.30
48555;BME280;34336;48.270;16.716;2023-04-28T01:39:27;109325.25;;;18.16;69.43
48555;BME280;34336;48.270;16.716;2023-04-28T01:41:54;109325.25;;;18.16;69.24
48555;BME280;34336;48.270;16.716;2023-04-28T01:44:21;109325.25;;;18.16;69.17
48555;BME280;34336;48.270;16.716;2023-04-28T01:46:47;109325.25;;;18.16;69.18
48555;BME280;34336;48.270;16.716;2023-04-28T01:49:14;109325.25;;;18.16;69.18
48555;BME280;34336;48.270;16.716;2023-04-28T01:51:41;109325.25;;;18.16;69.91
48555;BME280;34336;48.270;16.716;2023-04-28T01:54:08;109325.25;;;18.16;70.98
48555;BME280;34336;48.270;16.716;2023-04-28T01:56:35;109325.25;;;18.16;72.39
48555;BME280;34336;48.270;16.716;2023-04-28T01:59:02;109325.25;;;18.16;72.59
48555;BME280;34336;48.270;16.716;2023-04-28T02:01:30;109325.25;;;18.16;72.25
48555;BME280;34336;48.270;16.716;2023-04-28T02:03:56;109325.25;;;18.16;70.62
48555;BME280;34336;48.270;16.716;2023-04-28T02:06:23;109325.25;;;18.16;68.94
48555;BME280;34336;48.270;16.716;2023-04-28T02:08:50;109325.25;;;18.16;67.21
48555;BME280;34336;48.270;16.716;2023-04-28T02:11:16;109325.25;;;18.16;66.12
48555;BME280;34336;48.270;16.716;2023-04-28T02:13:43;109325.25;;;18.16;65.38
48555;BME280;34336;48.270;16.716;2023-04-28T02:16:10;109325.25;;;18.16;65.47
48555;BME280;34336;48.270;16.716;2023-04-28T02:18:36;109325.25;;;18.16;65.31
48555;BME280;34336;48.270;16.716;2023-04-28T02:21:10;109325.25;;;18.16;65.44
48555;BME280;34336;48.270;16.716;2023-04-28T02:23:37;109325.25;;;18.16;65.79
48555;BME280;34336;48.270;16.716;2023-04-28T02:26:04;109325.25;;;18.16;65.55
48555;BME280;34336;48.270;16.716;2023-04-28T02:28:30;109325.25;;;18.16;65.76
48555;BME280;34336;48.270;16.716;2023-04-28T02:31:31;109325.25;;;18.16;65.27
48555;BME280;34336;48.270;16.716;2023-04-28T02:33:52;109325.25;;;18.16;65.25
48555;BME280;34336;48.270;16.716;2023-04-28T02:36:19;109325.25;;;18.16;65.50
48555;BME280;34336;48.270;16.716;2023-04-28T02:38:45;109325.25;;;18.16;65.51
48555;BME280;34336;48.270;16.716;2023-04-28T02:41:12;109325.25;;;18.16;65.19
48555;BME280;34336;48.270;16.716;2023-04-28T02:43:40;109325.25;;;18.16;64.65
48555;BME280;34336;48.270;16.716;2023-04-28T02:46:07;109325.25;;;18.16;64.51
48555;BME280;34336;48.270;16.716;2023-04-28T02:48:34;109325.25;;;18.16;64.37
48555;BME280;34336;48.270;16.716;2023-04-28T02:51:02;109325.25;;;18.16;64.19
48555;BME280;34336;48.270;16.716;2023-04-28T02:53:30;109325.25;;;18.16;64.09
48555;BME280;34336;48.270;16.716;2023-04-28T02:55:57;109325.25;;;18.16;64.45
48555;BME280;34336;48.270;16.716;2023-04-28T02:58:25;109325.25;;;18.16;64.52
48555;BME280;34336;48.270;16.716;2023-04-28T03:00:52;109325.25;;;18.16;64.61
48555;BME280;34336;48.270;16.716;2023-04-28T03:03:18;109325.25;;;18.16;64.91
48555;BME280;34336;48.270;16.716;2023-04-28T03:05:45;109325.25;;;18.16;64.96
48555;BME280;34336;48.270;16.716;2023-04-28T03:08:12;109325.25;;;18.16;64.68
48555;BME280;34336;48.270;16.716;2023-04-28T03:10:38;109325.25;;;18.16;65.01
48555;BME280;34336;48.270;16.716;2023-04-28T03:13:05;109325.25;;;18.16;64.76
48555;BME280;34336;48.270;16.716;2023-04-28T03:15:32;109325.25;;;18.16;64.45
48555;BME280;34336;48.270;16.716;2023-04-28T03:17:59;109325.25;;;18.16;64.87
48555;BME280;34336;48.270;16.716;2023-04-28T03:20:25;109325.25;;;18.16;64.43
48555;BME280;34336;48.270;16.716;2023-04-28T03:22:52;109325.25;;;18.16;64.38
48555;BME280;34336;48.270;16.716;2023-04-28T03:25:18;109325.25;;;18.16;64.74
48555;BME280;34336;48.270;16.716;2023-04-28T03:27:47;109325.25;;;18.16;64.65
48555;BME280;34336;48.270;16.716;2023-04-28T03:30:14;109325.25;;;18.16;64.69
48555;BME280;34336;48.270;16.716;2023-04-28T03:32:41;109325.25;;;18.16;64.38
48555;BME280;34336;48.270;16.716;2023-04-28T03:35:08;109325.25;;;18.16;65.41
48555;BME280;34336;48.270;16.716;2023-04-28T03:37:35;109325.25;;;18.16;65.06
48555;BME280;34336;48.270;16.716;2023-04-28T03:40:01;109325.25;;;18.16;64.30
48555;BME280;34336;48.270;16.716;2023-04-28T03:42:35;109325.25;;;18.16;65.08
48555;BME280;34336;48.270;16.716;2023-04-28T03:45:06;109325.25;;;18.16;64.35
48555;BME280;34336;48.270;16.716;2023-04-28T03:47:33;109325.25;;;18.16;63.53
48555;BME280;34336;48.270;16.716;2023-04-28T03:50:00;109325.25;;;18.16;64.34
48555;BME280;34336;48.270;16.716;2023-04-28T03:52:27;109325.25;;;18.16;63.42
48555;BME280;34336;48.270;16.716;2023-04-28T03:54:54;109325.25;;;18.16;62.80
48555;BME280;34336;48.270;16.716;2023-04-28T03:57:21;109325.25;;;18.16;62.33
48555;BME280;34336;48.270;16.716;2023-04-28T03:59:49;109325.25;;;18.16;62.32
48555;BME280;34336;48.270;16.716;2023-04-28T04:02:16;109325.25;;;18.16;62.03
48555;BME280;34336;48.270;16.716;2023-04-28T04:04:43;109325.25;;;18.16;61.50
48555;BME280;34336;48.270;16.716;2023-04-28T04:07:10;109325.25;;;18.16;61.41
48555;BME280;34336;48.270;16.716;2023-04-28T04:09:38;109325.25;;;18.16;61.31
48555;BME280;34336;48.270;16.716;2023-04-28T04:12:05;109325.25;;;18.16;61.87
48555;BME280;34336;48.270;16.716;2023-04-28T04:14:31;109325.25;;;18.16;62.05
48555;BME280;34336;48.270;16.716;2023-04-28T04:16:58;109325.25;;;18.16;61.50
48555;BME280;34336;48.270;16.716;2023-04-28T04:19:26;109325.25;;;18.16;61.02
48555;BME280;34336;48.270;16.716;2023-04-28T04:21:54;109325.25;;;18.16;60.54
48555;BME280;34336;48.270;16.716;2023-04-28T04:24:21;109325.25;;;18.16;60.20
48555;BME280;34336;48.270;16.716;2023-04-28T04:26:48;109325.25;;;18.16;60.17
48555;BME280;34336;48.270;16.716;2023-04-28T04:29:36;109325.25;;;18.16;60.39
48555;BME280;34336;48.270;16.716;2023-04-28T04:32:09;109325.25;;;18.16;59.49
48555;BME280;34336;48.270;16.716;2023-04-28T04:34:37;109325.25;;;18.16;59.23
48555;BME280;34336;48.270;16.716;2023-04-28T04:37:03;109325.25;;;18.16;58.41
48555;BME280;34336;48.270;16.716;2023-04-28T04:39:31;109325.25;;;18.16;57.26
48555;BME280;34336;48.270;16.716;2023-04-28T04:41:58;109325.25;;;18.16;56.21
48555;BME280;34336;48.270;16.716;2023-04-28T04:44:43;109325.25;;;18.16;57.22
48555;BME280;34336;48.270;16.716;2023-04-28T04:47:19;109325.25;;;18.16;56.40
48555;BME280;34336;48.270;16.716;2023-04-28T04:49:46;109325.25;;;18.16;56.71
48555;BME280;34336;48.270;16.716;2023-04-28T04:52:13;109325.25;;;18.16;57.74
48555;BME280;34336;48.270;16.716;2023-04-28T04:54:40;109325.25;;;18.16;56.80
48555;BME280;34336;48.270;16.716;2023-04-28T04:57:09;109325.25;;;18.16;57.64
48555;BME280;34336;48.270;16.716;2023-04-28T04:59:54;109325.25;;;18.16;56.00
48555;BME280;34336;48.270;16.716;2023-04-28T05:02:21;109325.25;;;18.16;56.93
48555;BME280;34336;48.270;16.716;2023-04-28T05:04:47;109325.25;;;18.16;56.40
48555;BME280;34336;48.270;16.716;2023-04-28T05:07:15;109325.25;;;18.16;55.94
48555;BME280;34336;48.270;16.716;2023-04-28T05:09:42;109325.25;;;18.16;54.26
48555;BME280;34336;48.270;16.716;2023-04-28T05:12:10;109325.25;;;18.16;56.02
48555;BME280;34336;48.270;16.716;2023-04-28T05:14:37;109325.25;;;18.16;55.28
48555;BME280;34336;48.270;16.716;2023-04-28T05:17:03;109325.25;;;18.16;53.92
48555;BME280;34336;48.270;16.716;2023-04-28T05:19:35;109325.25;;;18.16;53.58
48555;BME280;34336;48.270;16.716;2023-04-28T05:22:02;109325.25;;;18.16;51.63
48555;BME280;34336;48.270;16.716;2023-04-28T05:24:30;109325.25;;;18.16;50.78
48555;BME280;34336;48.270;16.716;2023-04-28T05:26:57;109325.25;;;18.16;49.57
48555;BME280;34336;48.270;16.716;2023-04-28T05:29:24;109325.25;;;18.16;49.85
48555;BME280;34336;48.270;16.716;2023-04-28T05:31:51;109325.25;;;18.16;50.32
48555;BME280;34336;48.270;16.716;2023-04-28T05:34:20;109325.25;;;18.16;48.94
48555;BME280;34336;48.270;16.716;2023-04-28T05:36:47;109325.25;;;18.16;49.67
48555;BME280;34336;48.270;16.716;2023-04-28T05:39:16;109325.25;;;18.16;51.49
48555;BME280;34336;48.270;16.716;2023-04-28T05:41:42;109325.25;;;18.16;50.91
48555;BME280;34336;48.270;16.716;2023-04-28T05:44:09;109325.25;;;18.16;50.09
48555;BME280;34336;48.270;16.716;2023-04-28T05:46:36;109325.25;;;18.16;48.77
48555;BME280;34336;48.270;16.716;2023-04-28T05:49:04;109325.25;;;18.16;46.28
48555;BME280;34336;48.270;16.716;2023-04-28T05:51:34;109325.25;;;18.16;45.61
48555;BME280;34336;48.270;16.716;2023-04-28T05:54:01;109325.25;;;18.16;45.21
48555;BME280;34336;48.270;16.716;2023-04-28T05:56:29;109325.25;;;18.16;46.63
48555;BME280;34336;48.270;16.716;2023-04-28T05:58:58;109325.25;;;18.16;45.60
48555;BME280;34336;48.270;16.716;2023-04-28T06:01:26;109325.25;;;18.16;46.06
48555;BME280;34336;48.270;16.716;2023-04-28T06:03:52;109325.25;;;18.16;46.27
48555;BME280;34336;48.270;16.716;2023-04-28T06:06:19;109325.25;;;18.16;45.03
48555;BME280;34336;48.270;16.716;2023-04-28T06:08:47;109325.25;;;18.16;43.55
48555;BME280;34336;48.270;16.716;2023-04-28T06:11:13;109325.25;;;18.16;44.46
48555;BME280;34336;48.270;16.716;2023-04-28T06:13:40;109325.25;;;18.16;44.75
48555;BME280;34336;48.270;16.716;2023-04-28T06:16:06;109325.25;;;18.16;44.97
48555;BME280;34336;48.270;16.716;2023-04-28T06:18:33;109325.25;;;18.16;43.96
48555;BME280;34336;48.270;16.716;2023-04-28T06:21:02;109325.25;;;18.16;43.58
48555;BME280;34336;48.270;16.716;2023-04-28T06:23:28;109325.25;;;18.16;42.43
48555;BME280;34336;48.270;16.716;2023-04-28T06:25:56;109325.25;;;18.16;41.74
48555;BME280;34336;48.270;16.716;2023-04-28T06:28:23;109325.25;;;18.16;40.10
48555;BME280;34336;48.270;16.716;2023-04-28T06:30:51;109325.25;;;18.16;41.00
48555;BME280;34336;48.270;16.716;2023-04-28T06:33:18;109325.25;;;18.16;40.74
48555;BME280;34336;48.270;16.716;2023-04-28T06:35:45;109325.25;;;18.16;39.22
48555;BME280;34336;48.270;16.716;2023-04-28T06:38:14;109325.25;;;18.16;40.14
48555;BME280;34336;48.270;16.716;2023-04-28T06:40:40;109325.25;;;18.16;40.17
48555;BME280;34336;48.270;16.716;2023-04-28T06:43:07;109325.25;;;18.16;40.78
48555;BME280;34336;48.270;16.716;2023-04-28T06:45:41;109325.25;;;18.16;41.97
48555;BME280;34336;48.270;16.716;2023-04-28T06:48:08;109325.25;;;18.16;42.48
48555;BME280;34336;48.270;16.716;2023-04-28T06:50:37;109325.25;;;18.16;42.69
48555;BME280;34336;48.270;16.716;2023-04-28T06:53:05;109325.25;;;18.16;41.00
48555;BME280;34336;48.270;16.716;2023-04-28T06:55:33;109325.25;;;18.16;41.70
48555;BME280;34336;48.270;16.716;2023-04-28T06:57:59;109325.25;;;18.16;42.69
48555;BME280;34336;48.270;16.716;2023-04-28T07:00:26;109325.25;;;18.16;42.59
48555;BME280;34336;48.270;16.716;2023-04-28T07:02:53;109325.25;;;18.16;42.27
48555;BME280;34336;48.270;16.716;2023-04-28T07:05:20;109325.25;;;18.16;44.36
48555;BME280;34336;48.270;16.716;2023-04-28T07:07:46;109325.25;;;18.16;42.33
48555;BME280;34336;48.270;16.716;2023-04-28T07:10:13;109325.25;;;18.16;42.52
48555;BME280;34336;48.270;16.716;2023-04-28T07:12:41;109325.25;;;18.16;43.27
48555;BME280;34336;48.270;16.716;2023-04-28T07:15:07;109325.25;;;18.16;42.60
48555;BME280;34336;48.270;16.716;2023-04-28T07:17:35;109325.25;;;18.16;43.81
48555;BME280;34336;48.270;16.716;2023-04-28T07:20:02;109325.25;;;18.16;43.62
48555;BME280;34336;48.270;16.716;2023-04-28T07:22:30;109325.25;;;18.16;42.50
48555;BME280;34336;48.270;16.716;2023-04-28T07:24:56;109325.25;;;18.16;42.53
48555;BME280;34336;48.270;16.716;2023-04-28T07:27:23;109325.25;;;18.16;42.32
48555;BME280;34336;48.270;16.716;2023-04-28T07:29:49;109325.25;;;18.16;42.01
48555;BME280;34336;48.270;16.716;2023-04-28T07:32:16;109325.25;;;18.16;41.70
48555;BME280;34336;48.270;16.716;2023-04-28T07:34:43;109325.25;;;18.16;42.98
48555;BME280;34336;48.270;16.716;2023-04-28T07:37:09;109325.25;;;18.16;41.36
48555;BME280;34336;48.270;16.716;2023-04-28T07:39:37;109325.25;;;18.16;41.05
48555;BME280;34336;48.270;16.716;2023-04-28T07:42:05;109325.25;;;18.16;42.57
48555;BME280;34336;48.270;16.716;2023-04-28T07:44:32;109325.25;;;18.16;42.27
48555;BME280;34336;48.270;16.716;2023-04-28T07:46:59;109325.25;;;18.16;42.16
48555;BME280;34336;48.270;16.716;2023-04-28T07:49:29;109325.25;;;18.16;41.56
48555;BME280;34336;48.270;16.716;2023-04-28T07:51:55;109325.25;;;18.16;42.65
48555;BME280;34336;48.270;16.716;2023-04-28T07:54:22;109325.25;;;18.16;41.24
48555;BME280;34336;48.270;16.716;2023-04-28T07:56:49;109325.25;;;18.16;41.03
48555;BME280;34336;48.270;16.716;2023-04-28T07:59:15;109325.25;;;18.16;40.27
48555;BME280;34336;48.270;16.716;2023-04-28T08:01:42;109325.25;;;18.16;41.58
48555;BME280;34336;48.270;16.716;2023-04-28T08:04:08;109325.25;;;18.16;41.00
48555;BME280;34336;48.270;16.716;2023-04-28T08:06:37;109325.25;;;18.16;41.35
48555;BME280;34336;48.270;16.716;2023-04-28T08:09:04;109325.25;;;18.16;41.64
48555;BME280;34336;48.270;16.716;2023-04-28T08:11:31;109325.25;;;18.16;40.54
48555;BME280;34336;48.270;16.716;2023-04-28T08:13:59;109325.25;;;18.16;40.93
48555;BME280;34336;48.270;16.716;2023-04-28T08:16:28;109325.25;;;18.16;39.97
48555;BME280;34336;48.270;16.716;2023-04-28T08:18:55;109325.25;;;18.16;40.37
48555;BME280;34336;48.270;16.716;2023-04-28T08:21:22;109325.25;;;18.16;41.38
48555;BME280;34336;48.270;16.716;2023-04-28T08:23:48;109325.25;;;18.16;40.25
48555;BME280;34336;48.270;16.716;2023-04-28T08:26:15;109325.25;;;18.16;43.57
48555;BME280;34336;48.270;16.716;2023-04-28T08:28:42;109325.25;;;18.16;42.31
48555;BME280;34336;48.270;16.716;2023-04-28T08:31:08;109325.25;;;18.16;44.25
48555;BME280;34336;48.270;16.716;2023-04-28T08:33:35;109325.25;;;18.16;43.31
48555;BME280;34336;48.270;16.716;2023-04-28T08:36:01;109325.25;;;18.16;44.66
48555;BME280;34336;48.270;16.716;2023-04-28T08:38:29;109325.25;;;18.16;45.13
48555;BME280;34336;48.270;16.716;2023-04-28T08:40:55;109325.25;;;18.16;44.32
48555;BME280;34336;48.270;16.716;2023-04-28T08:43:22;109325.25;;;18.16;43.96
48555;BME280;34336;48.270;16.716;2023-04-28T08:45:49;109325.25;;;18.16;45.12
48555;BME280;34336;48.270;16.716;2023-04-28T08:50:43;109325.25;;;18.16;43.30
48555;BME280;34336;48.270;16.716;2023-04-28T08:53:14;109325.25;;;18.16;46.03
48555;BME280;34336;48.270;16.716;2023-04-28T08:55:43;109325.25;;;18.16;45.21
48555;BME280;34336;48.270;16.716;2023-04-28T08:58:10;109325.25;;;18.16;45.07
48555;BME280;34336;48.270;16.716;2023-04-28T09:00:37;109325.25;;;18.16;46.51
48555;BME280;34336;48.270;16.716;2023-04-28T09:03:04;109325.25;;;18.16;45.03
48555;BME280;34336;48.270;16.716;2023-04-28T09:05:31;109325.25;;;18.16;45.01
48555;BME280;34336;48.270;16.716;2023-04-28T09:08:00;109325.25;;;18.16;46.16
48555;BME280;34336;48.270;16.716;2023-04-28T09:10:27;109325.25;;;18.16;44.17
48555;BME280;34336;48.270;16.716;2023-04-28T09:12:54;109325.25;;;18.16;44.75
48555;BME280;34336;48.270;16.716;2023-04-28T09:15:36;109325.25;;;18.16;44.17
48555;BME280;34336;48.270;16.716;2023-04-28T09:18:03;109325.25;;;18.16;45.04
48555;BME280;34336;48.270;16.716;2023-04-28T09:20:31;109325.25;;;18.16;46.68
48555;BME280;34336;48.270;16.716;2023-04-28T09:23:11;109325.25;;;18.16;45.76
48555;BME280;34336;48.270;16.716;2023-04-28T09:25:38;109325.25;;;18.16;45.83
48555;BME280;34336;48.270;16.716;2023-04-28T09:28:20;109325.25;;;18.16;45.71
48555;BME280;34336;48.270;16.716;2023-04-28T09:30:47;109325.25;;;18.16;45.95
48555;BME280;34336;48.270;16.716;2023-04-28T09:33:14;109325.25;;;18.16;46.13
48555;BME280;34336;48.270;16.716;2023-04-28T09:35:41;109325.25;;;18.16;45.26
48555;BME280;34336;48.270;16.716;2023-04-28T09:38:08;109325.25;;;18.16;45.51
48555;BME280;34336;48.270;16.716;2023-04-28T09:40:54;109325.25;;;18.16;43.87
48555;BME280;34336;48.270;16.716;2023-04-28T09:43:22;109325.25;;;18.16;45.39
48555;BME280;34336;48.270;16.716;2023-04-28T09:45:49;109325.25;;;18.16;44.90
48555;BME280;34336;48.270;16.716;2023-04-28T09:48:16;109325.25;;;18.16;44.38
48555;BME280;34336;48.270;16.716;2023-04-28T09:50:44;109325.25;;;18.16;45.26
48555;BME280;34336;48.270;16.716;2023-04-28T09:53:11;109325.25;;;18.16;44.49
48555;BME280;34336;48.270;16.716;2023-04-28T09:55:39;109325.25;;;18.16;45.74
48555;BME280;34336;48.270;16.716;2023-04-28T09:58:09;109325.25;;;18.16;45.30
48555;BME280;34336;48.270;16.716;2023-04-28T10:00:38;109325.25;;;18.16;44.76
48555;BME280;34336;48.270;16.716;2023-04-28T10:03:06;109325.25;;;18.16;45.65
48555;BME280;34336;48.270;16.716;2023-04-28T10:05:34;109325.25;;;18.16;45.73
48555;BME280;34336;48.270;16.716;2023-04-28T10:08:01;109325.25;;;18.16;46.60
48555;BME280;34336;48.270;16.716;2023-04-28T10:10:28;109325.25;;;18.16;44.36
48555;BME280;34336;48.270;16.716;2023-04-28T10:12:55;109325.25;;;18.16;45.36
48555;BME280;34336;48.270;16.716;2023-04-28T10:15:22;109325.25;;;18.16;45.18
48555;BME280;34336;48.270;16.716;2023-04-28T10:17:48;109325.25;;;18.16;45.36
48555;BME280;34336;48.270;16.716;2023-04-28T10:20:16;109325.25;;;18.16;45.65
48555;BME280;34336;48.270;16.716;2023-04-28T10:27:44;109325.25;;;18.16;42.28
48555;BME280;34336;48.270;16.716;2023-04-28T10:30:12;109325.25;;;18.16;43.17
48555;BME280;34336;48.270;16.716;2023-04-28T10:42:59;109325.25;;;18.16;42.61
48555;BME280;34336;48.270;16.716;2023-04-28T10:56:24;109325.25;;;18.16;42.91
48555;BME280;34336;48.270;16.716;2023-04-28T10:58:52;109325.25;;;18.16;42.72
48555;BME280;34336;48.270;16.716;2023-04-28T11:06:46;109325.25;;;18.16;42.90
48555;BME280;34336;48.270;16.716;2023-04-28T11:12:03;109325.25;;;18.16;41.32
48555;BME280;34336;48.270;16.716;2023-04-28T11:14:30;109325.25;;;18.16;42.04
48555;BME280;34336;48.270;16.716;2023-04-28T11:19:28;109325.25;;;18.16;42.54
48555;BME280;34336;48.270;16.716;2023-04-28T11:21:55;109325.25;;;18.16;41.00
48555;BME280;34336;48.270;16.716;2023-04-28T11:24:22;109325.25;;;18.16;41.27
48555;BME280;34336;48.270;16.716;2023-04-28T11:26:52;109325.25;;;18.16;41.82
48555;BME280;34336;48.270;16.716;2023-04-28T11:31:58;109325.25;;;18.16;41.97
48555;BME280;34336;48.270;16.716;2023-04-28T11:34:25;109325.25;;;18.16;41.86
48555;BME280;34336;48.270;16.716;2023-04-28T11:36:52;109325.25;;;18.16;40.85
48555;BME280;34336;48.270;16.716;2023-04-28T11:39:30;109325.25;;;18.16;41.92
48555;BME280;34336;48.270;16.716;2023-04-28T11:41:57;109325.25;;;18.16;41.27
48555;BME280;34336;48.270;16.716;2023-04-28T11:44:25;109325.25;;;18.16;42.51
48555;BME280;34336;48.270;16.716;2023-04-28T11:46:56;109325.25;;;18.16;41.17
48555;BME280;34336;48.270;16.716;2023-04-28T11:49:27;109325.25;;;18.16;41.55
48555;BME280;34336;48.270;16.716;2023-04-28T11:51:54;109325.25;;;18.16;41.00
48555;BME280;34336;48.270;16.716;2023-04-28T11:54:25;109325.25;;;18.16;40.82
48555;BME280;34336;48.270;16.716;2023-04-28T11:56:52;109325.25;;;18.16;39.42
48555;BME280;34336;48.270;16.716;2023-04-28T11:59:22;109325.25;;;18.16;41.98
48555;BME280;34336;48.270;16.716;2023-04-28T12:01:55;109325.25;;;18.16;39.87
48555;BME280;34336;48.270;16.716;2023-04-28T12:04:30;109325.25;;;18.16;40.90
48555;BME280;34336;48.270;16.716;2023-04-28T12:07:01;109325.25;;;18.16;39.29
48555;BME280;34336;48.270;16.716;2023-04-28T12:09:28;109325.25;;;18.16;38.63
48555;BME280;34336;48.270;16.716;2023-04-28T12:11:55;109325.25;;;18.16;38.86
48555;BME280;34336;48.270;16.716;2023-04-28T12:14:23;109325.25;;;18.16;40.06
48555;BME280;34336;48.270;16.716;2023-04-28T12:16:50;109325.25;;;18.16;40.67
48555;BME280;34336;48.270;16.716;2023-04-28T12:19:17;109325.25;;;18.16;40.65
48555;BME280;34336;48.270;16.716;2023-04-28T12:21:57;109325.25;;;18.16;39.84
48555;BME280;34336;48.270;16.716;2023-04-28T12:24:24;109325.25;;;18.16;40.53
48555;BME280;34336;48.270;16.716;2023-04-28T12:26:52;109325.25;;;18.16;39.97
48555;BME280;34336;48.270;16.716;2023-04-28T12:29:37;109325.25;;;18.16;40.34
48555;BME280;34336;48.270;16.716;2023-04-28T12:32:05;109325.25;;;18.16;40.18
48555;BME280;34336;48.270;16.716;2023-04-28T12:34:32;109325.25;;;18.16;39.86
48555;BME280;34336;48.270;16.716;2023-04-28T12:36:59;109325.25;;;18.16;39.92
48555;BME280;34336;48.270;16.716;2023-04-28T12:39:26;109325.25;;;18.16;40.70
48555;BME280;34336;48.270;16.716;2023-04-28T12:41:53;109325.25;;;18.16;40.81
48555;BME280;34336;48.270;16.716;2023-04-28T12:44:24;109325.25;;;18.16;42.00
48555;BME280;34336;48.270;16.716;2023-04-28T12:46:53;109325.25;;;18.16;41.70
48555;BME280;34336;48.270;16.716;2023-04-28T12:49:20;109325.25;;;18.16;41.35
48555;BME280;34336;48.270;16.716;2023-04-28T12:51:47;109325.25;;;18.16;41.38
48555;BME280;34336;48.270;16.716;2023-04-28T12:54:13;109325.25;;;18.16;41.70
48555;BME280;34336;48.270;16.716;2023-04-28T12:56:40;109325.25;;;18.16;41.76
48555;BME280;34336;48.270;16.716;2023-04-28T12:59:06;109325.25;;;18.16;41.46
48555;BME280;34336;48.270;16.716;2023-04-28T13:01:33;109325.25;;;18.16;42.94
48555;BME280;34336;48.270;16.716;2023-04-28T13:03:59;109325.25;;;18.16;42.17
48555;BME280;34336;48.270;16.716;2023-04-28T13:06:26;109325.25;;;18.16;42.71
48555;BME280;34336;48.270;16.716;2023-04-28T13:08:53;109325.25;;;18.16;41.81
48555;BME280;34336;48.270;16.716;2023-04-28T13:11:20;109325.25;;;18.16;43.16
48555;BME280;34336;48.270;16.716;2023-04-28T13:13:48;109325.25;;;18.16;42.43
48555;BME280;34336;48.270;16.716;2023-04-28T13:16:15;109325.25;;;18.16;41.29
48555;BME280;34336;48.270;16.716;2023-04-28T13:18:41;109325.25;;;18.16;42.14
48555;BME280;34336;48.270;16.716;2023-04-28T13:21:08;109325.25;;;18.16;42.54
48555;BME280;34336;48.270;16.716;2023-04-28T13:23:35;109325.25;;;18.16;41.61
48555;BME280;34336;48.270;16.716;2023-04-28T13:26:01;109325.25;;;18.16;42.99